Time;durP1;ratioP1;P1;durP2;ratioP2;P2;SDS_P1;SDS_P2;PMS_P1;PMS_P2;Temp;Humidity;BMP_temperature;BMP_pressure;BME280_temperature;BME280_humidity;BME280_pressure;Samples;Min_cycle;Max_cycle;Signal;HPM_P1;HPM_P2
2022/07/30 03:34:40;;;;;;;;;;;;;;;10.73;100.00;99765.69;1357134;26;19933;-88
2022/07/30 03:37:08;;;;;;;;;;;;;;;10.73;100.00;99768.34;4988671;28;19921;-89
2022/07/30 03:39:56;;;;;;;;;;;;;;;10.63;100.00;99767.03;4960146;28;20004;-86
2022/07/30 03:42:26;;;;;;;;;;;;;;;10.53;100.00;99763.06;4939494;28;20296;-88
2022/07/30 03:44:51;;;;;;;;;;;;;;;10.83;100.00;99760.88;4961166;28;19981;-89
2022/07/30 03:47:45;;;;;;;;;;;;;;;10.69;100.00;99761.47;4961422;28;20436;-91
2022/07/30 03:53:51;;;;;;;;;;;;;;;;;;;;;
2022/07/30 03:56:41;;;;;;;;;;;;;;;10.90;100.00;99767.63;4820534;29;20004;-90
2022/07/30 03:59:39;;;;;;;;;;;;;;;10.96;100.00;99768.25;4815639;29;19944;-89
2022/07/30 04:02:13;;;;;;;;;;;;;;;10.88;100.00;99776.56;4947884;28;19918;-90
2022/07/30 04:05:02;;;;;;;;;;;;;;;;;;;;;
2022/07/30 04:07:36;;;;;;;;;;;;;;;10.76;100.00;99777.13;4982581;28;20384;-89
2022/07/30 04:10:21;;;;;;;;;;;;;;;11.04;100.00;99780.25;4997307;28;20042;-89
2022/07/30 04:13:09;;;;;;;;;;;;;;;10.89;100.00;99781.78;4982977;28;19918;-90
2022/07/30 04:16:23;;;;;;;;;;;;;;;;;;;;;
2022/07/30 04:19:06;;;;;;;;;;;;;;;10.70;100.00;99787.03;4981693;28;19922;-90
2022/07/30 04:22:16;;;;;;;;;;;;;;;10.93;100.00;99790.50;4980323;28;20038;-91
2022/07/30 04:24:56;;;;;;;;;;;;;;;11.06;100.00;99790.78;4979491;28;20292;-91
2022/07/30 04:27:24;;;;;;;;;;;;;;;10.98;100.00;99792.94;4981338;28;20293;-92
2022/07/30 04:30:01;;;;;;;;;;;;;;;10.81;100.00;99789.22;4981060;28;19921;-92
2022/07/30 04:32:37;;;;;;;;;;;;;;;10.90;100.00;99798.56;4981208;28;20412;-92
2022/07/30 04:35:23;;;;;;;;;;;;;;;;;;;;;
2022/07/30 04:37:59;;;;;;;;;;;;;;;;;;;;;
2022/07/30 04:40:57;;;;;;;;;;;;;;;;;;;;;
2022/07/30 04:43:26;;;;;;;;;;;;;;;10.81;100.00;99817.53;4982204;28;19922;-90
2022/07/30 07:37:16;;;;;;;;;;;;;;;10.97;100.00;99860.13;5041823;23;21738;-93
2022/07/30 07:39:44;;;;;;;;;;;;;;;11.15;100.00;99853.16;5032147;28;19952;-93
2022/07/30 07:42:17;;;;;;;;;;;;;;;11.25;100.00;99862.44;5016535;28;20399;-94
2022/07/30 07:45:36;;;;;;;;;;;;;;;11.12;100.00;99858.59;5015947;28;19924;-93
2022/07/30 07:51:06;;;;;;;;;;;;;;;;;;;;;
2022/07/30 07:53:37;;;;;;;;;;;;;;;11.08;100.00;99860.53;5003065;28;19930;-95
2022/07/30 07:56:07;;;;;;;;;;;;;;;11.27;100.00;99856.13;5003011;28;20412;-94
2022/07/30 07:58:35;;;;;;;;;;;;;;;11.19;100.00;99860.06;5001346;28;19924;-93
2022/07/30 08:01:00;;;;;;;;;;;;;;;11.00;100.00;99855.56;4984784;28;19914;-93
2022/07/30 08:06:17;;;;;;;;;;;;;;;11.19;100.00;99852.94;5098199;23;19929;-94
2022/07/30 08:08:52;;;;;;;;;;;;;;;;;;;;;
2022/07/30 08:11:23;;;;;;;;;;;;;;;11.08;100.00;99853.41;5032248;28;19921;-93
2022/07/30 08:13:50;;;;;;;;;;;;;;;11.37;100.00;99843.31;5010563;28;19977;-94
2022/07/30 08:16:21;;;;;;;;;;;;;;;11.32;100.00;99845.31;5005951;28;19922;-94
2022/07/30 08:18:50;;;;;;;;;;;;;;;11.28;100.00;99849.03;5013662;28;19918;-92
2022/07/30 08:21:15;;;;;;;;;;;;;;;11.33;100.00;99841.75;5010544;28;20403;-94
2022/07/30 08:23:40;;;;;;;;;;;;;;;11.41;100.00;99847.56;5006786;28;19921;-94
2022/07/30 08:26:06;;;;;;;;;;;;;;;11.31;100.00;99843.56;5006963;28;19917;-95
2022/07/30 08:28:34;;;;;;;;;;;;;;;11.50;100.00;99845.41;5006102;28;19971;-93
2022/07/30 08:33:52;;;;;;;;;;;;;;;11.43;100.00;99843.03;5101332;23;19929;-94
2022/07/30 08:36:17;;;;;;;;;;;;;;;11.39;100.00;99852.06;5011313;28;19952;-93
2022/07/30 08:38:43;;;;;;;;;;;;;;;11.62;100.00;99847.50;5016470;28;20329;-95
2022/07/30 08:41:10;;;;;;;;;;;;;;;11.43;100.00;99848.34;5018126;28;19917;-92
2022/07/30 08:43:38;;;;;;;;;;;;;;;11.31;100.00;99854.19;5018214;28;19917;-92
2022/07/30 08:46:07;;;;;;;;;;;;;;;11.64;100.00;99853.59;5016346;28;19928;-92
2022/07/30 08:48:33;;;;;;;;;;;;;;;11.44;100.00;99850.06;5017891;28;19921;-93
2022/07/30 08:51:08;;;;;;;;;;;;;;;11.44;100.00;99860.69;5017877;28;19962;-90
2022/07/30 08:53:34;;;;;;;;;;;;;;;11.49;100.00;99851.63;5017842;28;19928;-93
2022/07/30 08:55:59;;;;;;;;;;;;;;;11.53;100.00;99853.22;5017864;28;20288;-93
2022/07/30 08:58:37;;;;;;;;;;;;;;;11.44;100.00;99847.41;5018200;28;19924;-93
2022/07/30 09:01:04;;;;;;;;;;;;;;;11.37;100.00;99843.31;5016420;28;19913;-94
2022/07/30 09:06:36;;;;;;;;;;;;;;;11.51;100.00;99839.19;5033671;23;19932;-92
2022/07/30 09:09:41;;;;;;;;;;;;;;;;;;;;;
2022/07/30 09:17:17;;;;;;;;;;;;;;;11.55;100.00;99846.06;5041215;23;19982;-91
2022/07/30 09:22:58;;;;;;;;;;;;;;;11.33;100.00;99841.75;5220846;23;20346;-90
2022/07/30 09:25:43;;;;;;;;;;;;;;;11.63;100.00;99844.78;5318505;23;19929;-92
2022/07/30 09:28:10;;;;;;;;;;;;;;;11.66;100.00;99843.75;5011719;28;19928;-93
2022/07/30 09:30:47;;;;;;;;;;;;;;;11.48;100.00;99847.28;5023032;23;19935;-91
2022/07/30 09:33:12;;;;;;;;;;;;;;;11.51;100.00;99842.69;5052606;28;19963;-93
2022/07/30 09:38:03;;;;;;;;;;;;;;;11.58;100.00;99846.78;5064488;23;20408;-91
2022/07/30 09:40:29;;;;;;;;;;;;;;;11.48;100.00;99852.59;5034715;28;19917;-91
2022/07/30 09:43:05;;;;;;;;;;;;;;;11.68;100.00;99849.00;5017178;28;19928;-92
2022/07/30 09:48:20;;;;;;;;;;;;;;;11.31;100.00;99846.22;5311522;23;19929;-90
2022/07/30 09:50:49;;;;;;;;;;;;;;;11.43;100.00;99840.38;5016229;28;19956;-91
2022/07/30 09:53:17;;;;;;;;;;;;;;;11.67;100.00;99842.84;5013370;23;19929;-92
2022/07/30 09:55:44;;;;;;;;;;;;;;;11.52;100.00;99836.47;4983222;28;19989;-93
2022/07/30 09:58:12;;;;;;;;;;;;;;;11.28;100.00;99838.44;5002142;23;19932;-91
2022/07/30 10:00:38;;;;;;;;;;;;;;;11.57;100.00;99828.28;4987112;28;20012;-91
2022/07/30 10:03:33;;;;;;;;;;;;;;;11.56;100.00;99832.72;4995548;23;20019;-93
2022/07/30 10:11:47;;;;;;;;;;;;;;;11.45;100.00;99825.28;5021344;23;20454;-92
2022/07/30 10:14:13;;;;;;;;;;;;;;;11.64;100.00;99830.56;4995333;28;20210;-92
2022/07/30 10:16:41;;;;;;;;;;;;;;;11.50;100.00;99829.47;4996923;28;20052;-92
2022/07/30 10:19:07;;;;;;;;;;;;;;;11.44;100.00;99828.84;5013477;28;19921;-91
2022/07/30 10:21:34;;;;;;;;;;;;;;;11.69;100.00;99835.66;4996482;28;19946;-92
2022/07/30 10:29:21;;;;;;;;;;;;;;;11.50;100.00;99825.03;5239417;23;20189;-91
2022/07/30 10:31:47;;;;;;;;;;;;;;;11.69;100.00;99822.38;5021637;28;19917;-91
2022/07/30 10:36:53;;;;;;;;;;;;;;;11.41;100.00;99826.31;5503114;23;19925;-90
2022/07/30 10:39:34;;;;;;;;;;;;;;;11.79;100.00;99834.31;5019792;23;19967;-91
2022/07/30 10:42:03;;;;;;;;;;;;;;;11.61;100.00;99832.50;4976395;23;19930;-91
2022/07/30 10:44:37;;;;;;;;;;;;;;;11.55;100.00;99824.81;4983057;23;19980;-92
2022/07/30 10:47:08;;;;;;;;;;;;;;;11.56;100.00;99823.91;4993330;28;19926;-92
2022/07/30 10:49:38;;;;;;;;;;;;;;;11.71;100.00;99812.59;4976531;28;20016;-91
2022/07/30 10:52:04;;;;;;;;;;;;;;;11.60;100.00;99828.16;4984352;23;19924;-91
2022/07/30 10:54:34;;;;;;;;;;;;;;;11.47;100.00;99826.97;5029602;28;19925;-92
2022/07/30 10:57:03;;;;;;;;;;;;;;;11.59;100.00;99821.09;5031394;28;19917;-92
2022/07/30 10:59:28;;;;;;;;;;;;;;;11.56;100.00;99821.25;5515768;23;19925;-92
2022/07/30 11:07:28;;;;;;;;;;;;;;;11.58;100.00;99814.06;5022375;22;19947;-93
2022/07/30 11:09:55;;;;;;;;;;;;;;;11.53;100.00;99808.13;5043151;28;19920;-91
2022/07/30 11:12:49;;;;;;;;;;;;;;;11.51;100.00;99807.34;5062848;28;19928;-90
2022/07/30 11:15:18;;;;;;;;;;;;;;;11.23;100.00;99805.94;5043522;28;19916;-93
2022/07/30 11:18:03;;;;;;;;;;;;;;;11.36;100.00;99808.88;5058001;23;20477;-92
2022/07/30 11:20:29;;;;;;;;;;;;;;;11.55;100.00;99819.50;4984969;28;20436;-93
2022/07/30 11:23:28;;;;;;;;;;;;;;;;;;;;;
2022/07/30 11:26:05;;;;;;;;;;;;;;;11.34;100.00;99802.78;4953390;23;19927;-92
2022/07/30 11:31:50;;;;;;;;;;;;;;;11.40;100.00;99798.06;5457357;23;19940;-92
2022/07/30 11:34:24;;;;;;;;;;;;;;;11.45;100.00;99796.09;5468422;23;19983;-90
2022/07/30 11:37:11;;;;;;;;;;;;;;;11.38;100.00;99797.28;5022949;28;20295;-92
2022/07/30 11:51:37;;;;;;;;;;;;;;;;;;;;;
2022/07/30 12:03:12;;;;;;;;;;;;;;;11.31;100.00;99771.94;5032328;28;19948;-92
2022/07/30 12:05:38;;;;;;;;;;;;;;;11.28;100.00;99774.78;5160638;23;19929;-92
2022/07/30 12:10:30;;;;;;;;;;;;;;;11.23;100.00;99767.03;4995659;23;19933;-93
2022/07/30 12:16:10;;;;;;;;;;;;;;;11.14;100.00;99766.59;5659704;22;19970;-94
2022/07/30 12:25:01;;;;;;;;;;;;;;;;;;;;;
2022/07/30 12:27:27;;;;;;;;;;;;;;;11.27;100.00;99767.75;5057675;28;20352;-91
2022/07/30 12:30:01;;;;;;;;;;;;;;;11.22;100.00;99765.28;5038933;28;20011;-94
2022/07/30 12:35:06;;;;;;;;;;;;;;;11.38;100.00;99764.59;5279904;23;19933;-93
2022/07/30 12:38:29;;;;;;;;;;;;;;;11.41;100.00;99767.13;4998481;28;19960;-92
2022/07/30 12:40:58;;;;;;;;;;;;;;;11.14;100.00;99762.13;4944097;28;19917;-91
2022/07/30 12:43:43;;;;;;;;;;;;;;;11.37;100.00;99758.41;4998071;28;19918;-92
2022/07/30 12:46:12;;;;;;;;;;;;;;;11.47;100.00;99760.63;4997476;28;19922;-92
2022/07/30 12:51:15;;;;;;;;;;;;;;;11.37;100.00;99755.75;5619404;23;19925;-91
2022/07/30 12:53:43;;;;;;;;;;;;;;;11.50;100.00;99756.03;5017916;28;19921;-92
2022/07/30 12:56:30;;;;;;;;;;;;;;;11.44;100.00;99751.91;5017792;28;19922;-91
2022/07/30 12:58:56;;;;;;;;;;;;;;;11.50;100.00;99753.38;5017543;28;19967;-92
2022/07/30 13:04:26;;;;;;;;;;;;;;;11.44;100.00;99751.91;4984179;28;19963;-92
2022/07/30 13:10:11;;;;;;;;;;;;;;;11.52;100.00;99748.00;5040726;23;19932;-91
2022/07/30 13:12:39;;;;;;;;;;;;;;;11.35;100.00;99749.69;5025804;28;19928;-89
2022/07/30 13:16:19;;;;;;;;;;;;;;;;;;;;;
2022/07/30 13:23:43;;;;;;;;;;;;;;;11.41;100.00;99743.25;4996941;28;20026;-93
2022/07/30 13:26:16;;;;;;;;;;;;;;;11.24;100.00;99741.34;5045075;22;19917;-93
2022/07/30 13:28:45;;;;;;;;;;;;;;;11.56;100.00;99737.19;5043758;28;19933;-93
2022/07/30 13:31:13;;;;;;;;;;;;;;;11.43;100.00;99746.66;5033477;28;19927;-91
2022/07/30 13:33:39;;;;;;;;;;;;;;;11.38;100.00;99751.34;5058843;23;19944;-92
2022/07/30 13:36:05;;;;;;;;;;;;;;;11.44;100.00;99741.28;4995800;28;19917;-92
2022/07/30 13:44:26;;;;;;;;;;;;;;;11.37;100.00;99731.88;5556279;23;20307;-93
2022/07/30 13:46:52;;;;;;;;;;;;;;;11.37;100.00;99739.84;4929509;29;19930;-93
2022/07/30 13:49:52;;;;;;;;;;;;;;;;;;;;;
2022/07/30 13:52:20;;;;;;;;;;;;;;;11.60;100.00;99728.16;5014690;28;19913;-93
2022/07/30 13:54:51;;;;;;;;;;;;;;;11.54;100.00;99728.44;4996713;28;19972;-93
2022/07/30 13:57:18;;;;;;;;;;;;;;;11.54;100.00;99727.59;4989050;28;20434;-92
2022/07/30 13:59:44;;;;;;;;;;;;;;;11.64;100.00;99719.09;5013189;28;19980;-92
2022/07/30 14:02:12;;;;;;;;;;;;;;;11.48;100.00;99738.50;5004729;28;19972;-92
2022/07/30 14:04:43;;;;;;;;;;;;;;;11.33;100.00;99730.31;4989628;28;19917;-92
2022/07/30 14:07:09;;;;;;;;;;;;;;;11.67;100.00;99723.41;4987289;28;20008;-92
2022/07/30 14:09:34;;;;;;;;;;;;;;;11.54;100.00;99711.69;4996300;28;20004;-91
2022/07/30 14:11:59;;;;;;;;;;;;;;;11.37;100.00;99715.97;4987074;28;19917;-91
2022/07/30 14:14:27;;;;;;;;;;;;;;;11.67;100.00;99717.25;4986532;28;20021;-92
2022/07/30 14:16:52;;;;;;;;;;;;;;;11.60;100.00;99720.19;5319572;23;19925;-92
2022/07/30 14:19:18;;;;;;;;;;;;;;;11.44;100.00;99720.06;4986825;28;20341;-92
2022/07/30 14:21:43;;;;;;;;;;;;;;;11.49;100.00;99714.53;4986118;28;19965;-92
2022/07/30 14:24:11;;;;;;;;;;;;;;;11.59;100.00;99709.66;4985716;28;20012;-93
2022/07/30 14:26:39;;;;;;;;;;;;;;;11.55;100.00;99716.03;4986833;28;19964;-90
2022/07/30 14:29:33;;;;;;;;;;;;;;;11.48;100.00;99717.28;4985717;28;19933;-92
2022/07/30 14:31:59;;;;;;;;;;;;;;;11.62;100.00;99720.97;4984523;28;19917;-92
2022/07/30 14:34:24;;;;;;;;;;;;;;;11.68;100.00;99724.25;4986058;28;19921;-92
2022/07/30 14:36:49;;;;;;;;;;;;;;;11.54;100.00;99725.78;4984908;28;19924;-91
2022/07/30 14:39:15;;;;;;;;;;;;;;;11.56;100.00;99717.75;4985981;28;20000;-92
2022/07/30 14:41:41;;;;;;;;;;;;;;;11.69;100.00;99726.84;4986938;28;20008;-89
2022/07/30 14:44:10;;;;;;;;;;;;;;;11.57;100.00;99723.00;5002792;28;19921;-91
2022/07/30 14:46:36;;;;;;;;;;;;;;;11.47;100.00;99715.53;4987095;28;19921;-92
2022/07/30 14:49:01;;;;;;;;;;;;;;;11.68;100.00;99717.16;4985277;28;19925;-92
2022/07/30 14:51:26;;;;;;;;;;;;;;;11.61;100.00;99718.38;4985006;28;19928;-92
2022/07/30 14:53:52;;;;;;;;;;;;;;;11.49;100.00;99713.66;5003339;28;19925;-93
2022/07/30 14:56:21;;;;;;;;;;;;;;;11.77;100.00;99713.19;4986466;28;19921;-92
2022/07/30 14:58:46;;;;;;;;;;;;;;;11.58;100.00;99714.09;4984614;28;20419;-93
2022/07/30 15:01:11;;;;;;;;;;;;;;;11.53;100.00;99709.94;4984867;28;20000;-92
2022/07/30 15:03:40;;;;;;;;;;;;;;;11.60;100.00;99722.00;5002932;28;20479;-91
2022/07/30 15:06:08;;;;;;;;;;;;;;;11.62;100.00;99705.03;5010196;28;19913;-92
2022/07/30 15:08:44;;;;;;;;;;;;;;;11.59;100.00;99715.81;5002874;28;20357;-91
2022/07/30 15:11:10;;;;;;;;;;;;;;;11.44;100.00;99720.06;5002112;28;19918;-92
2022/07/30 15:13:35;;;;;;;;;;;;;;;11.73;100.00;99717.81;4985259;28;19968;-91
2022/07/30 15:16:01;;;;;;;;;;;;;;;11.54;100.00;99716.97;4982675;28;19922;-92
2022/07/30 15:18:26;;;;;;;;;;;;;;;11.50;100.00;99710.94;4984730;28;20365;-91
2022/07/30 15:20:52;;;;;;;;;;;;;;;11.72;100.00;99713.41;4984940;28;20451;-91
2022/07/30 15:23:25;;;;;;;;;;;;;;;11.61;100.00;99718.38;4986962;28;19917;-91
2022/07/30 15:25:51;;;;;;;;;;;;;;;11.47;100.00;99723.50;4984822;28;19984;-89
2022/07/30 15:28:16;;;;;;;;;;;;;;;11.64;100.00;99719.09;4985347;28;20309;-93
2022/07/30 15:30:50;;;;;;;;;;;;;;;11.70;100.00;99728.56;4984185;28;19921;-93
2022/07/30 15:33:16;;;;;;;;;;;;;;;11.56;100.00;99721.25;5001730;28;19922;-92
2022/07/30 15:35:41;;;;;;;;;;;;;;;11.51;100.00;99722.44;5007933;28;19976;-91
2022/07/30 15:38:06;;;;;;;;;;;;;;;11.72;100.00;99721.38;4987063;28;20349;-91
2022/07/30 15:43:35;;;;;;;;;;;;;;;11.53;100.00;99713.44;5002507;28;19976;-92
2022/07/30 15:51:28;;;;;;;;;;;;;;;11.58;100.00;99719.41;5028313;23;19957;-91
2022/07/30 15:53:56;;;;;;;;;;;;;;;11.43;100.00;99721.00;4993630;28;19925;-93
2022/07/30 15:56:49;;;;;;;;;;;;;;;11.41;100.00;99717.56;4994454;28;19925;-94
2022/07/30 15:59:38;;;;;;;;;;;;;;;11.51;100.00;99717.13;4994298;28;20414;-91
2022/07/30 16:02:07;;;;;;;;;;;;;;;11.57;100.00;99716.84;4995053;28;20139;-92
2022/07/30 16:04:38;;;;;;;;;;;;;;;11.47;100.00;99716.38;4994941;28;19943;-93
2022/07/30 16:07:04;;;;;;;;;;;;;;;11.39;100.00;99719.44;5012560;28;19925;-93
2022/07/30 16:09:29;;;;;;;;;;;;;;;11.50;100.00;99716.25;5013819;28;19917;-92
2022/07/30 16:15:12;;;;;;;;;;;;;;;11.44;100.00;99705.94;5011859;23;19936;-92
2022/07/30 16:17:40;;;;;;;;;;;;;;;11.29;100.00;99709.31;4994960;28;20000;-91
2022/07/30 16:20:14;;;;;;;;;;;;;;;11.30;100.00;99695.97;5577738;23;19935;-88
2022/07/30 16:22:40;;;;;;;;;;;;;;;11.52;100.00;99700.25;4979853;28;20346;-90
2022/07/30 16:25:08;;;;;;;;;;;;;;;11.45;100.00;99703.22;5126713;23;19936;-92
2022/07/30 16:27:33;;;;;;;;;;;;;;;11.26;100.00;99699.69;4964138;28;20358;-91
2022/07/30 16:35:49;;;;;;;;;;;;;;;11.56;100.00;99715.94;5007525;28;20308;-90
2022/07/30 16:38:15;;;;;;;;;;;;;;;11.34;100.00;99696.69;5003897;28;20016;-91
2022/07/30 16:40:44;;;;;;;;;;;;;;;11.25;100.00;99706.81;5003200;28;20428;-91
2022/07/30 16:46:41;;;;;;;;;;;;;;;11.59;100.00;99699.03;5033480;23;20070;-91
2022/07/30 16:49:09;;;;;;;;;;;;;;;11.50;100.00;99702.97;5005051;28;19928;-91
2022/07/30 16:51:34;;;;;;;;;;;;;;;11.42;100.00;99705.13;5025316;28;19925;-92
2022/07/30 16:59:40;;;;;;;;;;;;;;;11.63;100.00;99708.56;5010140;28;19928;-89
2022/07/30 17:04:34;;;;;;;;;;;;;;;11.22;100.00;99716.72;5471720;23;20269;-90
2022/07/30 17:10:07;;;;;;;;;;;;;;;11.54;100.00;99714.31;5052076;23;20495;-92
2022/07/30 17:17:57;;;;;;;;;;;;;;;11.29;100.00;99718.13;5096695;23;20428;-89
2022/07/30 17:23:30;;;;;;;;;;;;;;;11.53;100.00;99715.25;4935771;29;19919;-90
2022/07/30 17:26:06;;;;;;;;;;;;;;;11.38;100.00;99715.03;5012995;28;19924;-90
2022/07/30 17:28:37;;;;;;;;;;;;;;;11.24;100.00;99722.78;5028497;28;20409;-88
2022/07/30 17:34:12;;;;;;;;;;;;;;;;;;;;;
2022/07/30 17:36:39;;;;;;;;;;;;;;;11.46;100.00;99733.25;5043181;28;19925;-92
2022/07/30 17:39:04;;;;;;;;;;;;;;;11.41;100.00;99741.44;5024175;28;19964;-91
2022/07/30 17:41:30;;;;;;;;;;;;;;;11.33;100.00;99743.59;5027279;28;19956;-90
2022/07/30 17:43:55;;;;;;;;;;;;;;;11.53;100.00;99733.81;5025760;28;20364;-91
2022/07/30 17:46:21;;;;;;;;;;;;;;;11.44;100.00;99738.63;5025078;28;20395;-93
2022/07/30 17:48:46;;;;;;;;;;;;;;;11.34;100.00;99737.34;5237169;23;19964;-93
2022/07/30 17:54:27;;;;;;;;;;;;;;;11.61;100.00;99736.97;5453087;23;19932;-93
2022/07/30 17:56:52;;;;;;;;;;;;;;;11.43;100.00;99742.22;5046862;28;20863;-91
2022/07/30 18:09:11;;;;;;;;;;;;;;;11.43;100.00;99741.38;5009718;23;19956;-93
2022/07/30 18:11:36;;;;;;;;;;;;;;;11.50;100.00;99742.78;5009090;28;19921;-91
2022/07/30 18:16:59;;;;;;;;;;;;;;;11.36;100.00;99743.44;5053007;23;20577;-88
2022/07/30 18:19:24;;;;;;;;;;;;;;;11.32;100.00;99747.16;5376898;23;19929;-91
2022/07/30 18:21:52;;;;;;;;;;;;;;;11.48;100.00;99739.34;5022703;28;19921;-89
2022/07/30 18:24:18;;;;;;;;;;;;;;;11.36;100.00;99747.88;5027802;23;20270;-90
2022/07/30 18:26:45;;;;;;;;;;;;;;;11.37;100.00;99753.09;5008837;28;19924;-91
2022/07/30 18:29:31;;;;;;;;;;;;;;;11.61;100.00;99748.44;5003295;28;20004;-91
2022/07/30 18:32:02;;;;;;;;;;;;;;;11.48;100.00;99749.09;5066703;23;19929;-88
2022/07/30 18:34:39;;;;;;;;;;;;;;;11.36;100.00;99756.72;5022228;28;19920;-90
2022/07/30 18:37:04;;;;;;;;;;;;;;;11.36;100.00;99764.66;5041009;28;19976;-91
2022/07/30 18:47:38;;;;;;;;;;;;;;;11.63;100.00;99766.94;5032877;23;19928;-90
2022/07/30 18:50:04;;;;;;;;;;;;;;;11.66;100.00;99772.09;5004693;28;19925;-88
2022/07/30 18:55:36;;;;;;;;;;;;;;;11.37;100.00;99769.03;5643979;23;19929;-91
2022/07/30 19:00:52;;;;;;;;;;;;;;;11.68;100.00;99772.91;5084319;23;19925;-89
2022/07/30 19:04:02;;;;;;;;;;;;;;;11.55;100.00;99774.41;5027729;28;20341;-90
2022/07/30 19:06:30;;;;;;;;;;;;;;;11.54;100.00;99780.66;4905139;29;19927;-89
2022/07/30 19:08:58;;;;;;;;;;;;;;;11.51;100.00;99780.81;5007975;28;20372;-88
2022/07/30 19:16:34;;;;;;;;;;;;;;;11.40;100.00;99779.50;3236231;26;19986;-89
2022/07/30 19:19:00;;;;;;;;;;;;;;;11.56;100.00;99789.41;5023829;28;19925;-90
2022/07/30 19:21:35;;;;;;;;;;;;;;;11.59;100.00;99787.47;5025805;28;19929;-91
2022/07/30 19:44:35;;;;;;;;;;;;;;;11.43;100.00;99805.03;5157285;23;19925;-90
2022/07/30 19:50:07;;;;;;;;;;;;;;;11.66;100.00;99809.25;5027431;23;19932;-90
2022/07/30 19:58:47;;;;;;;;;;;;;;;11.65;100.00;99820.81;5027713;23;20421;-88
2022/07/30 20:01:21;;;;;;;;;;;;;;;11.72;100.00;99819.59;5009502;28;19936;-89
2022/07/30 20:03:46;;;;;;;;;;;;;;;11.64;100.00;99824.41;5015586;28;19944;-89
2022/07/30 20:06:23;;;;;;;;;;;;;;;;;;;;;
2022/07/30 20:08:50;;;;;;;;;;;;;;;11.61;100.00;99814.78;5015283;28;19985;-90
2022/07/30 20:11:29;;;;;;;;;;;;;;;11.71;100.00;99822.31;5017445;28;20011;-90
2022/07/30 20:14:10;;;;;;;;;;;;;;;;;;;;;
2022/07/30 20:22:36;;;;;;;;;;;;;;;11.75;100.00;99831.88;4988155;28;19922;-89
2022/07/30 20:25:04;;;;;;;;;;;;;;;11.73;100.00;99833.75;4992501;28;19925;-90
2022/07/30 20:28:10;;;;;;;;;;;;;;;11.57;100.00;99830.94;5008491;28;19944;-91
2022/07/30 20:33:21;;;;;;;;;;;;;;;11.86;100.00;99836.69;5443240;23;19928;-89
2022/07/30 20:36:22;;;;;;;;;;;;;;;;;;;;;
2022/07/30 20:38:48;;;;;;;;;;;;;;;11.64;100.00;99843.81;4994474;22;19925;-88
2022/07/30 20:47:01;;;;;;;;;;;;;;;11.80;100.00;99841.31;5035435;23;19925;-90
2022/07/30 20:50:01;;;;;;;;;;;;;;;11.63;100.00;99839.47;5017102;28;19928;-90
2022/07/30 20:55:20;;;;;;;;;;;;;;;11.79;100.00;99847.59;5012813;28;20344;-90
2022/07/30 21:00:24;;;;;;;;;;;;;;;11.63;100.00;99858.06;1485297;26;20351;-89
2022/07/30 21:02:49;;;;;;;;;;;;;;;11.57;100.00;99860.97;4995918;28;19921;-88
2022/07/30 21:05:45;;;;;;;;;;;;;;;;;;;;;
2022/07/30 21:09:02;;;;;;;;;;;;;;;;;;;;;
2022/07/30 21:17:30;;;;;;;;;;;;;;;11.48;100.00;99855.25;4842837;29;19928;-89
2022/07/30 21:19:55;;;;;;;;;;;;;;;11.43;100.00;99851.00;4852372;29;19928;-89
2022/07/30 21:22:46;;;;;;;;;;;;;;;;;;;;;
2022/07/30 21:25:41;;;;;;;;;;;;;;;11.67;100.00;99856.09;4849511;29;19931;-89
2022/07/30 21:28:06;;;;;;;;;;;;;;;11.50;100.00;99854.22;4861762;29;19926;-87
2022/07/30 21:33:25;;;;;;;;;;;;;;;11.67;100.00;99852.59;5026333;23;20408;-88
2022/07/30 21:35:50;;;;;;;;;;;;;;;11.67;100.00;99850.81;5006550;28;20284;-90
2022/07/30 21:38:15;;;;;;;;;;;;;;;11.48;100.00;99849.94;5005132;28;19926;-90
2022/07/30 21:40:41;;;;;;;;;;;;;;;11.44;100.00;99852.72;5025127;28;20367;-88
2022/07/30 21:43:06;;;;;;;;;;;;;;;11.67;100.00;99850.81;5005256;28;19921;-85
2022/07/30 21:45:32;;;;;;;;;;;;;;;11.57;100.00;99857.47;5002889;28;19925;-86
2022/07/30 21:47:57;;;;;;;;;;;;;;;11.33;100.00;99844.38;5006673;28;20005;-89
2022/07/30 21:50:22;;;;;;;;;;;;;;;11.51;100.00;99845.34;5006515;28;20012;-87
2022/07/30 21:52:47;;;;;;;;;;;;;;;11.67;100.00;99853.44;5003921;28;19929;-88
2022/07/30 21:55:15;;;;;;;;;;;;;;;11.53;100.00;99854.06;5023385;28;20380;-86
2022/07/30 21:57:42;;;;;;;;;;;;;;;11.34;100.00;99854.06;5021085;28;19996;-90
2022/07/30 22:00:20;;;;;;;;;;;;;;;11.66;100.00;99853.53;5021368;28;19925;-87
2022/07/30 22:02:46;;;;;;;;;;;;;;;11.71;100.00;99854.16;5022601;28;19956;-85
2022/07/30 22:05:20;;;;;;;;;;;;;;;11.48;100.00;99856.09;5023344;28;19990;-91
2022/07/30 22:08:08;;;;;;;;;;;;;;;11.54;100.00;99855.81;5013815;22;19960;-91
2022/07/30 22:13:28;;;;;;;;;;;;;;;11.71;100.00;99857.69;5095664;23;20017;-88
2022/07/30 22:16:12;;;;;;;;;;;;;;;11.48;100.00;99857.88;5050229;28;20003;-92
2022/07/30 22:18:38;;;;;;;;;;;;;;;11.62;100.00;99858.97;5039809;28;19927;-91
2022/07/30 22:21:04;;;;;;;;;;;;;;;11.82;100.00;99860.72;5037859;28;19920;-86
2022/07/30 22:23:29;;;;;;;;;;;;;;;11.60;100.00;99860.00;5034228;28;19924;-86
2022/07/30 22:25:55;;;;;;;;;;;;;;;11.61;100.00;99859.03;5043219;28;20036;-87
2022/07/30 22:28:24;;;;;;;;;;;;;;;11.80;100.00;99861.69;5037103;28;19932;-88
2022/07/30 22:30:52;;;;;;;;;;;;;;;11.62;100.00;99864.28;5031265;28;20379;-85
2022/07/30 22:38:30;;;;;;;;;;;;;;;11.74;100.00;99859.34;5145577;23;19925;-93
2022/07/30 22:41:00;;;;;;;;;;;;;;;11.61;100.00;99857.25;5025355;28;19921;-90
2022/07/30 22:43:25;;;;;;;;;;;;;;;11.73;100.00;99855.81;5018411;28;20411;-85
2022/07/30 22:45:53;;;;;;;;;;;;;;;11.79;100.00;99854.66;5022255;28;19971;-88
2022/07/30 22:48:18;;;;;;;;;;;;;;;11.57;100.00;99868.09;5001961;28;20317;-87
2022/07/30 22:50:44;;;;;;;;;;;;;;;11.57;100.00;99870.75;5018167;28;20008;-86
2022/07/30 22:53:09;;;;;;;;;;;;;;;11.76;100.00;99865.44;5021432;28;19924;-86
2022/07/30 22:55:38;;;;;;;;;;;;;;;11.60;100.00;99870.59;5002773;28;19999;-87
2022/07/30 22:59:04;;;;;;;;;;;;;;;;;;;;;
2022/07/30 23:02:00;;;;;;;;;;;;;;;;;;;;;
2022/07/30 23:07:05;;;;;;;;;;;;;;;;;;;;;
2022/07/30 23:35:12;;;;;;;;;;;;;;;11.67;100.00;99871.19;4972260;28;19922;-93
2022/07/30 23:37:38;;;;;;;;;;;;;;;11.67;100.00;99861.41;4983278;28;19921;-87
2022/07/30 23:40:09;;;;;;;;;;;;;;;11.91;100.00;99861.22;5011073;28;19932;-91
2022/07/30 23:43:01;;;;;;;;;;;;;;;11.74;100.00;99862.88;5047558;23;19929;-90
2022/07/30 23:45:46;;;;;;;;;;;;;;;11.64;100.00;99858.91;5090555;23;20402;-94
2022/07/30 23:48:11;;;;;;;;;;;;;;;11.79;100.00;99854.66;5015493;28;19973;-88
2022/07/30 23:50:42;;;;;;;;;;;;;;;11.78;100.00;99856.47;5003731;28;20432;-90
2022/07/30 23:53:10;;;;;;;;;;;;;;;11.63;100.00;99860.72;5005019;28;19917;-92
2022/07/30 23:59:49;;;;;;;;;;;;;;;11.76;100.00;99855.69;4933620;29;19962;-93
